»·PEaware :: N660WC KSNA-KCRQ

N660WC :: KSNA-KCRQ

FLIGHT INFORMATION

Flight Status: Arrived
Operator: Privately registered:
United States
More flights under this callsign
Pilot: John H. (7647)
Aircraft: CESSNA 172 SKYHAWK
(C172)
More flights by this aircraft type
Origin: KSNA John Wayne-Orange Co
United States
Destination: KCRQ McClellan-Palomar
United States
More flights between these airports :: More routes between these airports
Route: V23 OCN
File this flight plan on PilotEdge
Remarks: I2 Check ride
Altitude:
(Current/Filed)
5,000ft
Speed:
(Current/Filed)
160kts
Departed: 01-Sep-18 10:58 AM
Arrived: 01-Sep-18 11:47 AM
Distance/Time
Traveled:
44nm/0:49
Distance/Time
To Go:
Arrived

Flight Plot

Page will automatically refresh every two minutes.


Map Options




Map Legend


Flown Route
Filed Route
Departure Airport
Arrival Airport
Navaid (VOR, NDB)
Fix

Horizontal Profiles

Position Reports

Time Latitude Longitude Heading Altitude Ground
Speed
01-Sep-18 10:47 33.676081 -117.870908 219 60ft 0kts
01-Sep-18 10:48 33.676081 -117.870908 219 60ft 0kts
01-Sep-18 10:49 33.676081 -117.870908 219 60ft 0kts
01-Sep-18 10:50 33.676081 -117.870908 219 60ft 0kts
01-Sep-18 10:51 33.676081 -117.870908 219 60ft 0kts
01-Sep-18 10:52 33.676081 -117.870908 219 60ft 0kts
01-Sep-18 10:53 33.676081 -117.870908 219 60ft 0kts
01-Sep-18 10:54 33.676081 -117.870908 219 60ft 0kts
01-Sep-18 10:55 33.676081 -117.870908 219 60ft 0kts
01-Sep-18 10:56 33.676081 -117.870908 219 60ft 0kts
01-Sep-18 10:57 33.676042 -117.870121 33 59ft 11kts
01-Sep-18 10:58 33.680587 -117.867397 26 60ft 16kts
01-Sep-18 10:58 33.681188 -117.866357 112 60ft 0kts
01-Sep-18 11:00 33.676831 -117.868125 208 60ft 77kts
01-Sep-18 11:01 33.650675 -117.877350 186 762ft 108kts
01-Sep-18 11:02 33.620441 -117.880752 186 1784ft 112kts
01-Sep-18 11:03 33.590719 -117.884956 183 2759ft 101kts
01-Sep-18 11:03 33.569155 -117.887536 187 3530ft 90kts
01-Sep-18 11:04 33.545856 -117.888049 186 4531ft 81kts
01-Sep-18 11:05 33.520157 -117.889401 186 4995ft 121kts
01-Sep-18 11:07 33.475713 -117.894023 186 4979ft 147kts
01-Sep-18 11:07 33.441385 -117.897879 187 4967ft 150kts
01-Sep-18 11:08 33.400398 -117.902246 186 4976ft 151kts
01-Sep-18 11:09 33.361031 -117.892650 126 4981ft 161kts
01-Sep-18 11:10 33.350545 -117.839598 103 4977ft 165kts
01-Sep-18 11:11 33.342303 -117.785721 102 4977ft 165kts
01-Sep-18 11:12 33.333421 -117.732179 103 4978ft 165kts
01-Sep-18 11:13 33.322784 -117.679087 107 4976ft 164kts
01-Sep-18 11:14 33.306954 -117.628097 113 4977ft 163kts
01-Sep-18 11:15 33.290734 -117.577863 113 4976ft 163kts
01-Sep-18 11:16 33.274495 -117.527458 111 4971ft 163kts
01-Sep-18 11:17 33.266303 -117.474180 101 4967ft 164kts
01-Sep-18 11:18 33.261734 -117.420129 91 4969ft 166kts
01-Sep-18 11:19 33.261644 -117.367116 90 4970ft 160kts
01-Sep-18 11:20 33.260313 -117.321854 91 4969ft 154kts
01-Sep-18 11:21 33.258433 -117.270864 91 4967ft 152kts
01-Sep-18 11:22 33.256508 -117.221102 91 4967ft 149kts
01-Sep-18 11:23 33.254679 -117.172826 91 4993ft 145kts
01-Sep-18 11:24 33.253346 -117.126707 91 4994ft 144kts
01-Sep-18 11:25 33.252137 -117.079308 91 4995ft 144kts
01-Sep-18 11:26 33.231847 -117.039689 149 4506ft 163kts
01-Sep-18 11:27 33.193367 -117.012814 150 3526ft 159kts
01-Sep-18 11:28 33.159473 -117.006956 250 3439ft 126kts
01-Sep-18 11:29 33.146913 -117.044853 250 3472ft 129kts
01-Sep-18 11:30 33.134604 -117.085882 252 3461ft 124kts
01-Sep-18 11:31 33.123743 -117.121925 251 3465ft 109kts
01-Sep-18 11:32 33.113325 -117.156120 251 3470ft 113kts
01-Sep-18 11:33 33.094080 -117.182312 171 3472ft 124kts
01-Sep-18 11:34 33.085763 -117.148088 72 3470ft 128kts
01-Sep-18 11:35 33.096134 -117.107057 70 3468ft 132kts
01-Sep-18 11:36 33.106936 -117.064608 71 3468ft 135kts
01-Sep-18 11:37 33.117885 -117.021533 71 3468ft 136kts
01-Sep-18 11:38 33.132179 -116.982180 26 3471ft 132kts
01-Sep-18 11:39 33.151590 -117.005286 282 3470ft 125kts
01-Sep-18 11:40 33.158317 -117.046055 278 3465ft 125kts
01-Sep-18 11:41 33.156286 -117.087679 269 3474ft 126kts
01-Sep-18 11:42 33.152021 -117.131707 262 2851ft 135kts
01-Sep-18 11:43 33.145734 -117.171984 260 2188ft 99kts
01-Sep-18 11:44 33.141327 -117.198723 260 1639ft 77kts
01-Sep-18 11:45 33.137597 -117.222200 254 1244ft 76kts
01-Sep-18 11:46 33.133707 -117.246111 254 828ft 79kts
01-Sep-18 11:47 33.130175 -117.268082 256 443ft 67kts
01-Sep-18 11:48 33.128979 -117.280171 302 319ft 0kts
01-Sep-18 11:49 33.129398 -117.279936 112 319ft 0kts
01-Sep-18 11:50 33.129398 -117.279936 112 318ft 0kts
01-Sep-18 11:51 33.129398 -117.279936 112 318ft 0kts
01-Sep-18 11:52 33.129398 -117.279936 112 318ft 0kts
01-Sep-18 11:53 33.129398 -117.279936 112 318ft 0kts
01-Sep-18 11:54 33.129398 -117.279936 112 318ft 0kts
01-Sep-18 11:55 33.129398 -117.279936 112 318ft 0kts
01-Sep-18 11:56 33.129398 -117.279936 112 318ft 0kts
01-Sep-18 11:57 33.129398 -117.279936 112 318ft 0kts
01-Sep-18 11:58 33.129398 -117.279936 112 318ft 0kts
01-Sep-18 11:59 33.129398 -117.279936 112 318ft 0kts
01-Sep-18 12:00 33.129398 -117.279936 112 318ft 0kts
01-Sep-18 12:01 33.129398 -117.279936 112 318ft 0kts
01-Sep-18 12:02 33.129398 -117.279936 112 318ft 0kts

Navigation Log

Ident Type
1. KSNA Airport
2. OCN Navaid
3. KCRQ Airport